sensor_id;sensor_type;location;lat;lon;timestamp;temperature;humidity
37158;DHT22;23050;51.776;22.638;2023-07-09T00:02:12;14.40;99.90
37158;DHT22;23050;51.776;22.638;2023-07-09T00:04:37;14.40;99.90
37158;DHT22;23050;51.776;22.638;2023-07-09T00:07:03;14.30;99.90
37158;DHT22;23050;51.776;22.638;2023-07-09T00:09:29;14.30;99.90
37158;DHT22;23050;51.776;22.638;2023-07-09T00:11:55;14.30;99.90
37158;DHT22;23050;51.776;22.638;2023-07-09T00:14:21;14.30;99.90
37158;DHT22;23050;51.776;22.638;2023-07-09T00:16:47;14.40;99.90
37158;DHT22;23050;51.776;22.638;2023-07-09T00:19:20;14.30;99.90
37158;DHT22;23050;51.776;22.638;2023-07-09T00:21:49;14.30;99.90
37158;DHT22;23050;51.776;22.638;2023-07-09T00:24:18;14.30;99.90
37158;DHT22;23050;51.776;22.638;2023-07-09T00:26:44;14.20;99.90
37158;DHT22;23050;51.776;22.638;2023-07-09T00:29:10;14.20;99.90
37158;DHT22;23050;51.776;22.638;2023-07-09T00:31:36;14.20;99.90
37158;DHT22;23050;51.776;22.638;2023-07-09T00:34:09;14.20;99.90
37158;DHT22;23050;51.776;22.638;2023-07-09T00:36:37;14.20;99.90
37158;DHT22;23050;51.776;22.638;2023-07-09T00:39:02;14.20;99.90
37158;DHT22;23050;51.776;22.638;2023-07-09T00:41:33;14.10;99.90
37158;DHT22;23050;51.776;22.638;2023-07-09T00:44:12;14.10;99.90
37158;DHT22;23050;51.776;22.638;2023-07-09T00:49:16;14.10;99.90
37158;DHT22;23050;51.776;22.638;2023-07-09T00:51:44;14.10;99.90
37158;DHT22;23050;51.776;22.638;2023-07-09T00:54:23;14.10;99.90
37158;DHT22;23050;51.776;22.638;2023-07-09T00:56:57;14.10;99.90
37158;DHT22;23050;51.776;22.638;2023-07-09T00:59:24;14.10;99.90
37158;DHT22;23050;51.776;22.638;2023-07-09T01:01:54;14.10;99.90
37158;DHT22;23050;51.776;22.638;2023-07-09T01:04:20;14.00;99.90
37158;DHT22;23050;51.776;22.638;2023-07-09T01:06:55;14.00;99.90
37158;DHT22;23050;51.776;22.638;2023-07-09T01:09:22;13.90;99.90
37158;DHT22;23050;51.776;22.638;2023-07-09T01:11:48;14.00;99.90
37158;DHT22;23050;51.776;22.638;2023-07-09T01:14:14;13.90;99.90
37158;DHT22;23050;51.776;22.638;2023-07-09T01:16:43;13.90;99.90
37158;DHT22;23050;51.776;22.638;2023-07-09T01:19:12;13.80;99.90
37158;DHT22;23050;51.776;22.638;2023-07-09T01:21:39;13.80;99.90
37158;DHT22;23050;51.776;22.638;2023-07-09T01:24:15;13.80;99.90
37158;DHT22;23050;51.776;22.638;2023-07-09T01:26:41;13.70;99.90
37158;DHT22;23050;51.776;22.638;2023-07-09T01:29:08;13.70;99.90
37158;DHT22;23050;51.776;22.638;2023-07-09T01:31:33;13.70;99.90
37158;DHT22;23050;51.776;22.638;2023-07-09T01:34:00;13.70;99.90
37158;DHT22;23050;51.776;22.638;2023-07-09T01:36:25;13.70;99.90
37158;DHT22;23050;51.776;22.638;2023-07-09T01:38:52;13.70;99.90
37158;DHT22;23050;51.776;22.638;2023-07-09T01:41:18;13.70;99.90
37158;DHT22;23050;51.776;22.638;2023-07-09T01:43:46;13.60;99.90
37158;DHT22;23050;51.776;22.638;2023-07-09T01:46:12;13.60;99.90
37158;DHT22;23050;51.776;22.638;2023-07-09T01:48:38;13.60;99.90
37158;DHT22;23050;51.776;22.638;2023-07-09T01:51:09;13.60;99.90
37158;DHT22;23050;51.776;22.638;2023-07-09T01:53:35;13.50;99.90
37158;DHT22;23050;51.776;22.638;2023-07-09T01:56:02;13.50;99.90
37158;DHT22;23050;51.776;22.638;2023-07-09T01:58:28;13.50;99.90
37158;DHT22;23050;51.776;22.638;2023-07-09T02:00:57;13.40;99.90
37158;DHT22;23050;51.776;22.638;2023-07-09T02:03:22;13.40;99.90
37158;DHT22;23050;51.776;22.638;2023-07-09T02:05:52;13.30;99.90
37158;DHT22;23050;51.776;22.638;2023-07-09T02:08:17;13.40;99.90
37158;DHT22;23050;51.776;22.638;2023-07-09T02:10:43;13.30;99.90
37158;DHT22;23050;51.776;22.638;2023-07-09T02:13:09;13.40;99.90
37158;DHT22;23050;51.776;22.638;2023-07-09T02:15:34;13.30;99.90
37158;DHT22;23050;51.776;22.638;2023-07-09T02:18:01;13.30;99.90
37158;DHT22;23050;51.776;22.638;2023-07-09T02:20:27;13.30;99.90
37158;DHT22;23050;51.776;22.638;2023-07-09T02:22:52;13.30;99.90
37158;DHT22;23050;51.776;22.638;2023-07-09T02:25:18;13.30;99.90
37158;DHT22;23050;51.776;22.638;2023-07-09T02:27:43;13.40;99.90
37158;DHT22;23050;51.776;22.638;2023-07-09T02:30:09;13.30;99.90
37158;DHT22;23050;51.776;22.638;2023-07-09T02:32:36;13.30;99.90
37158;DHT22;23050;51.776;22.638;2023-07-09T02:35:01;13.30;99.90
37158;DHT22;23050;51.776;22.638;2023-07-09T02:37:27;13.30;99.90
37158;DHT22;23050;51.776;22.638;2023-07-09T02:39:53;13.30;99.90
37158;DHT22;23050;51.776;22.638;2023-07-09T02:42:19;13.30;99.90
37158;DHT22;23050;51.776;22.638;2023-07-09T02:44:45;13.40;99.90
37158;DHT22;23050;51.776;22.638;2023-07-09T02:47:11;13.30;99.90
37158;DHT22;23050;51.776;22.638;2023-07-09T02:49:36;13.40;99.90
37158;DHT22;23050;51.776;22.638;2023-07-09T02:52:02;13.40;99.90
37158;DHT22;23050;51.776;22.638;2023-07-09T02:54:27;13.30;99.90
37158;DHT22;23050;51.776;22.638;2023-07-09T02:56:53;13.40;99.90
37158;DHT22;23050;51.776;22.638;2023-07-09T02:59:19;13.40;99.90
37158;DHT22;23050;51.776;22.638;2023-07-09T03:01:45;13.40;99.90
37158;DHT22;23050;51.776;22.638;2023-07-09T03:04:10;13.40;99.90
37158;DHT22;23050;51.776;22.638;2023-07-09T03:06:36;13.40;99.90
37158;DHT22;23050;51.776;22.638;2023-07-09T03:09:03;13.50;99.90
37158;DHT22;23050;51.776;22.638;2023-07-09T03:11:29;13.50;99.90
37158;DHT22;23050;51.776;22.638;2023-07-09T03:13:55;13.60;99.90
37158;DHT22;23050;51.776;22.638;2023-07-09T03:16:21;13.50;99.90
37158;DHT22;23050;51.776;22.638;2023-07-09T03:18:46;13.70;99.90
37158;DHT22;23050;51.776;22.638;2023-07-09T03:21:12;13.70;99.90
37158;DHT22;23050;51.776;22.638;2023-07-09T03:23:37;13.80;99.90
37158;DHT22;23050;51.776;22.638;2023-07-09T03:26:03;13.80;99.90
37158;DHT22;23050;51.776;22.638;2023-07-09T03:28:30;13.90;99.90
37158;DHT22;23050;51.776;22.638;2023-07-09T03:30:55;13.90;99.90
37158;DHT22;23050;51.776;22.638;2023-07-09T03:33:21;14.00;99.90
37158;DHT22;23050;51.776;22.638;2023-07-09T03:35:47;14.10;99.90
37158;DHT22;23050;51.776;22.638;2023-07-09T03:38:12;14.20;99.90
37158;DHT22;23050;51.776;22.638;2023-07-09T03:40:38;14.20;99.90
37158;DHT22;23050;51.776;22.638;2023-07-09T03:43:08;14.30;99.90
37158;DHT22;23050;51.776;22.638;2023-07-09T03:45:34;14.40;99.90
37158;DHT22;23050;51.776;22.638;2023-07-09T03:48:00;14.50;99.90
37158;DHT22;23050;51.776;22.638;2023-07-09T03:50:25;14.60;99.90
37158;DHT22;23050;51.776;22.638;2023-07-09T03:52:51;14.70;99.90
37158;DHT22;23050;51.776;22.638;2023-07-09T03:55:16;14.80;99.90
37158;DHT22;23050;51.776;22.638;2023-07-09T03:57:42;14.90;99.90
37158;DHT22;23050;51.776;22.638;2023-07-09T04:00:07;14.90;99.90
37158;DHT22;23050;51.776;22.638;2023-07-09T04:02:36;15.00;99.90
37158;DHT22;23050;51.776;22.638;2023-07-09T04:05:02;15.10;99.90
37158;DHT22;23050;51.776;22.638;2023-07-09T04:07:28;15.20;99.90
37158;DHT22;23050;51.776;22.638;2023-07-09T04:09:53;15.30;99.90
37158;DHT22;23050;51.776;22.638;2023-07-09T04:12:19;15.50;99.90
37158;DHT22;23050;51.776;22.638;2023-07-09T04:14:44;15.60;99.90
37158;DHT22;23050;51.776;22.638;2023-07-09T04:17:10;15.70;99.90
37158;DHT22;23050;51.776;22.638;2023-07-09T04:19:36;15.80;99.90
37158;DHT22;23050;51.776;22.638;2023-07-09T04:22:01;15.90;99.90
37158;DHT22;23050;51.776;22.638;2023-07-09T04:24:27;16.10;99.90
37158;DHT22;23050;51.776;22.638;2023-07-09T04:26:52;16.10;99.90
37158;DHT22;23050;51.776;22.638;2023-07-09T04:29:24;16.30;99.90
37158;DHT22;23050;51.776;22.638;2023-07-09T04:31:49;16.40;99.90
37158;DHT22;23050;51.776;22.638;2023-07-09T04:34:15;16.50;99.90
37158;DHT22;23050;51.776;22.638;2023-07-09T04:36:40;16.70;99.90
37158;DHT22;23050;51.776;22.638;2023-07-09T04:39:06;16.80;99.90
37158;DHT22;23050;51.776;22.638;2023-07-09T04:41:32;16.90;99.90
37158;DHT22;23050;51.776;22.638;2023-07-09T04:43:58;17.00;99.90
37158;DHT22;23050;51.776;22.638;2023-07-09T04:46:23;17.20;99.90
37158;DHT22;23050;51.776;22.638;2023-07-09T04:48:49;17.30;99.90
37158;DHT22;23050;51.776;22.638;2023-07-09T04:51:15;17.50;99.90
37158;DHT22;23050;51.776;22.638;2023-07-09T04:53:40;17.60;99.90
37158;DHT22;23050;51.776;22.638;2023-07-09T04:56:07;17.70;99.90
37158;DHT22;23050;51.776;22.638;2023-07-09T04:58:33;17.90;99.90
37158;DHT22;23050;51.776;22.638;2023-07-09T05:00:59;18.00;99.90
37158;DHT22;23050;51.776;22.638;2023-07-09T05:03:25;18.20;99.90
37158;DHT22;23050;51.776;22.638;2023-07-09T05:05:50;18.30;99.90
37158;DHT22;23050;51.776;22.638;2023-07-09T05:08:16;18.30;99.90
37158;DHT22;23050;51.776;22.638;2023-07-09T05:10:42;18.50;99.90
37158;DHT22;23050;51.776;22.638;2023-07-09T05:13:08;18.70;99.90
37158;DHT22;23050;51.776;22.638;2023-07-09T05:15:34;18.80;99.90
37158;DHT22;23050;51.776;22.638;2023-07-09T05:17:59;19.00;99.90
37158;DHT22;23050;51.776;22.638;2023-07-09T05:20:25;19.30;99.90
37158;DHT22;23050;51.776;22.638;2023-07-09T05:22:51;19.40;99.10
37158;DHT22;23050;51.776;22.638;2023-07-09T05:25:16;19.60;99.20
37158;DHT22;23050;51.776;22.638;2023-07-09T05:27:42;19.80;97.40
37158;DHT22;23050;51.776;22.638;2023-07-09T05:30:08;20.00;93.70
37158;DHT22;23050;51.776;22.638;2023-07-09T05:32:34;20.20;92.30
37158;DHT22;23050;51.776;22.638;2023-07-09T05:35:00;20.70;90.30
37158;DHT22;23050;51.776;22.638;2023-07-09T05:37:25;21.00;79.90
37158;DHT22;23050;51.776;22.638;2023-07-09T05:39:51;21.60;70.80
37158;DHT22;23050;51.776;22.638;2023-07-09T05:42:16;22.80;58.10
37158;DHT22;23050;51.776;22.638;2023-07-09T05:44:42;24.40;31.90
37158;DHT22;23050;51.776;22.638;2023-07-09T05:47:08;25.60;14.70
37158;DHT22;23050;51.776;22.638;2023-07-09T05:49:33;26.40;2.80
37158;DHT22;23050;51.776;22.638;2023-07-09T05:51:58;27.30;1.00
37158;DHT22;23050;51.776;22.638;2023-07-09T05:54:24;28.00;1.00
37158;DHT22;23050;51.776;22.638;2023-07-09T05:56:49;28.70;1.00
37158;DHT22;23050;51.776;22.638;2023-07-09T05:59:15;29.40;1.00
37158;DHT22;23050;51.776;22.638;2023-07-09T06:01:40;29.60;1.00
37158;DHT22;23050;51.776;22.638;2023-07-09T06:04:06;30.00;1.00
37158;DHT22;23050;51.776;22.638;2023-07-09T06:06:31;30.20;1.00
37158;DHT22;23050;51.776;22.638;2023-07-09T06:08:57;30.20;1.00
37158;DHT22;23050;51.776;22.638;2023-07-09T06:11:22;29.80;1.00
37158;DHT22;23050;51.776;22.638;2023-07-09T06:13:48;30.10;1.00
37158;DHT22;23050;51.776;22.638;2023-07-09T06:16:14;30.70;1.00
37158;DHT22;23050;51.776;22.638;2023-07-09T06:18:39;31.40;1.00
37158;DHT22;23050;51.776;22.638;2023-07-09T06:21:05;31.10;1.00
37158;DHT22;23050;51.776;22.638;2023-07-09T06:23:32;31.60;1.00
37158;DHT22;23050;51.776;22.638;2023-07-09T06:25:58;32.40;1.00
37158;DHT22;23050;51.776;22.638;2023-07-09T06:28:24;33.10;1.00
37158;DHT22;23050;51.776;22.638;2023-07-09T06:30:50;33.20;1.00
37158;DHT22;23050;51.776;22.638;2023-07-09T06:33:17;32.80;1.00
37158;DHT22;23050;51.776;22.638;2023-07-09T06:35:47;32.40;1.00
37158;DHT22;23050;51.776;22.638;2023-07-09T06:38:13;32.50;1.00
37158;DHT22;23050;51.776;22.638;2023-07-09T06:40:38;33.70;1.00
37158;DHT22;23050;51.776;22.638;2023-07-09T06:43:04;34.60;1.00
37158;DHT22;23050;51.776;22.638;2023-07-09T06:45:29;35.00;1.00
37158;DHT22;23050;51.776;22.638;2023-07-09T06:47:55;35.40;1.00
37158;DHT22;23050;51.776;22.638;2023-07-09T06:50:21;35.30;1.00
37158;DHT22;23050;51.776;22.638;2023-07-09T06:52:46;35.30;1.00
37158;DHT22;23050;51.776;22.638;2023-07-09T06:55:12;36.00;1.00
37158;DHT22;23050;51.776;22.638;2023-07-09T06:57:37;36.10;1.00
37158;DHT22;23050;51.776;22.638;2023-07-09T07:00:03;36.60;1.00
37158;DHT22;23050;51.776;22.638;2023-07-09T07:02:28;35.90;1.00
37158;DHT22;23050;51.776;22.638;2023-07-09T07:04:54;36.00;1.00
37158;DHT22;23050;51.776;22.638;2023-07-09T07:07:20;35.60;1.00
37158;DHT22;23050;51.776;22.638;2023-07-09T07:09:46;35.70;1.00
37158;DHT22;23050;51.776;22.638;2023-07-09T07:12:19;36.40;1.00
37158;DHT22;23050;51.776;22.638;2023-07-09T07:14:45;35.80;1.00
37158;DHT22;23050;51.776;22.638;2023-07-09T07:17:10;35.20;1.00
37158;DHT22;23050;51.776;22.638;2023-07-09T07:19:36;35.80;1.00
37158;DHT22;23050;51.776;22.638;2023-07-09T07:22:01;36.10;1.00
37158;DHT22;23050;51.776;22.638;2023-07-09T07:24:27;35.80;1.00
37158;DHT22;23050;51.776;22.638;2023-07-09T07:26:52;35.70;1.00
37158;DHT22;23050;51.776;22.638;2023-07-09T07:29:18;35.30;1.00
37158;DHT22;23050;51.776;22.638;2023-07-09T07:31:43;35.80;1.00
37158;DHT22;23050;51.776;22.638;2023-07-09T07:34:08;36.70;1.00
37158;DHT22;23050;51.776;22.638;2023-07-09T07:36:34;37.50;1.00
37158;DHT22;23050;51.776;22.638;2023-07-09T07:38:59;38.40;1.00
37158;DHT22;23050;51.776;22.638;2023-07-09T07:41:25;38.70;1.00
37158;DHT22;23050;51.776;22.638;2023-07-09T07:43:50;39.20;1.00
37158;DHT22;23050;51.776;22.638;2023-07-09T07:46:16;39.60;1.00
37158;DHT22;23050;51.776;22.638;2023-07-09T07:48:41;39.30;1.00
37158;DHT22;23050;51.776;22.638;2023-07-09T07:51:07;39.70;1.00
37158;DHT22;23050;51.776;22.638;2023-07-09T07:53:33;39.30;1.00
37158;DHT22;23050;51.776;22.638;2023-07-09T07:55:58;39.80;1.00
37158;DHT22;23050;51.776;22.638;2023-07-09T07:58:24;38.90;1.00
37158;DHT22;23050;51.776;22.638;2023-07-09T08:00:49;38.70;1.00
37158;DHT22;23050;51.776;22.638;2023-07-09T08:03:19;39.20;1.00
37158;DHT22;23050;51.776;22.638;2023-07-09T08:05:48;39.30;1.00
37158;DHT22;23050;51.776;22.638;2023-07-09T08:08:13;38.80;1.00
37158;DHT22;23050;51.776;22.638;2023-07-09T08:10:39;39.00;1.00
37158;DHT22;23050;51.776;22.638;2023-07-09T08:13:04;39.40;1.00
37158;DHT22;23050;51.776;22.638;2023-07-09T08:15:30;39.90;1.00
37158;DHT22;23050;51.776;22.638;2023-07-09T08:17:55;40.00;1.00
37158;DHT22;23050;51.776;22.638;2023-07-09T08:20:21;40.70;1.00
37158;DHT22;23050;51.776;22.638;2023-07-09T08:22:46;41.70;1.00
37158;DHT22;23050;51.776;22.638;2023-07-09T08:25:12;41.60;1.00
37158;DHT22;23050;51.776;22.638;2023-07-09T08:27:37;41.60;1.00
37158;DHT22;23050;51.776;22.638;2023-07-09T08:30:03;40.40;1.00
37158;DHT22;23050;51.776;22.638;2023-07-09T08:32:30;39.40;1.00
37158;DHT22;23050;51.776;22.638;2023-07-09T08:34:55;40.20;1.00
37158;DHT22;23050;51.776;22.638;2023-07-09T08:37:21;40.90;1.00
37158;DHT22;23050;51.776;22.638;2023-07-09T08:39:46;41.00;1.00
37158;DHT22;23050;51.776;22.638;2023-07-09T08:42:14;40.80;1.00
37158;DHT22;23050;51.776;22.638;2023-07-09T08:52:48;41.80;1.00
37158;DHT22;23050;51.776;22.638;2023-07-09T08:55:15;42.00;1.00
37158;DHT22;23050;51.776;22.638;2023-07-09T08:57:45;42.10;1.00
37158;DHT22;23050;51.776;22.638;2023-07-09T09:00:26;42.30;1.00
37158;DHT22;23050;51.776;22.638;2023-07-09T09:02:55;42.50;1.00
37158;DHT22;23050;51.776;22.638;2023-07-09T09:05:21;42.10;1.00
37158;DHT22;23050;51.776;22.638;2023-07-09T09:07:51;41.30;1.00
37158;DHT22;23050;51.776;22.638;2023-07-09T09:13:10;41.40;1.00
37158;DHT22;23050;51.776;22.638;2023-07-09T09:15:38;40.90;1.00
37158;DHT22;23050;51.776;22.638;2023-07-09T09:18:24;40.60;1.00
37158;DHT22;23050;51.776;22.638;2023-07-09T09:21:00;40.60;1.00
37158;DHT22;23050;51.776;22.638;2023-07-09T09:23:38;40.30;1.00
37158;DHT22;23050;51.776;22.638;2023-07-09T09:26:04;40.20;1.00
37158;DHT22;23050;51.776;22.638;2023-07-09T09:28:35;40.00;1.00
37158;DHT22;23050;51.776;22.638;2023-07-09T09:31:01;40.00;1.00
37158;DHT22;23050;51.776;22.638;2023-07-09T09:33:36;39.70;1.00
37158;DHT22;23050;51.776;22.638;2023-07-09T09:36:02;40.00;1.00
37158;DHT22;23050;51.776;22.638;2023-07-09T09:38:31;39.70;1.00
37158;DHT22;23050;51.776;22.638;2023-07-09T09:41:00;39.50;1.00
37158;DHT22;23050;51.776;22.638;2023-07-09T09:43:31;39.50;1.00
37158;DHT22;23050;51.776;22.638;2023-07-09T09:45:56;39.50;1.00
37158;DHT22;23050;51.776;22.638;2023-07-09T09:48:27;39.70;1.00
37158;DHT22;23050;51.776;22.638;2023-07-09T09:50:53;39.00;1.00
37158;DHT22;23050;51.776;22.638;2023-07-09T09:53:20;38.70;1.00
37158;DHT22;23050;51.776;22.638;2023-07-09T09:55:46;38.30;1.00
37158;DHT22;23050;51.776;22.638;2023-07-09T09:58:15;37.70;1.00
37158;DHT22;23050;51.776;22.638;2023-07-09T10:00:47;37.80;1.00
37158;DHT22;23050;51.776;22.638;2023-07-09T10:03:13;37.60;1.00
37158;DHT22;23050;51.776;22.638;2023-07-09T10:05:40;38.10;1.00
37158;DHT22;23050;51.776;22.638;2023-07-09T10:08:13;38.40;1.00
37158;DHT22;23050;51.776;22.638;2023-07-09T10:10:40;37.90;1.00
37158;DHT22;23050;51.776;22.638;2023-07-09T10:13:18;37.80;1.00
37158;DHT22;23050;51.776;22.638;2023-07-09T10:16:00;37.90;1.00
37158;DHT22;23050;51.776;22.638;2023-07-09T10:18:31;38.20;1.00
37158;DHT22;23050;51.776;22.638;2023-07-09T10:33:10;34.90;1.00
37158;DHT22;23050;51.776;22.638;2023-07-09T10:35:37;35.00;1.00
37158;DHT22;23050;51.776;22.638;2023-07-09T10:40:49;35.70;1.00
37158;DHT22;23050;51.776;22.638;2023-07-09T10:43:17;35.90;1.00
37158;DHT22;23050;51.776;22.638;2023-07-09T10:45:46;36.00;1.00
37158;DHT22;23050;51.776;22.638;2023-07-09T10:48:13;35.60;1.00
37158;DHT22;23050;51.776;22.638;2023-07-09T10:50:41;35.20;1.00
37158;DHT22;23050;51.776;22.638;2023-07-09T10:55:56;35.20;1.00
37158;DHT22;23050;51.776;22.638;2023-07-09T11:00:50;35.20;1.00
37158;DHT22;23050;51.776;22.638;2023-07-09T11:03:17;34.70;1.00
37158;DHT22;23050;51.776;22.638;2023-07-09T11:05:43;34.70;1.00
37158;DHT22;23050;51.776;22.638;2023-07-09T11:08:11;34.90;1.00
37158;DHT22;23050;51.776;22.638;2023-07-09T11:10:39;34.50;1.00
37158;DHT22;23050;51.776;22.638;2023-07-09T11:15:39;34.70;1.00
37158;DHT22;23050;51.776;22.638;2023-07-09T11:18:06;34.90;1.00
37158;DHT22;23050;51.776;22.638;2023-07-09T11:20:34;35.40;1.00
37158;DHT22;23050;51.776;22.638;2023-07-09T11:23:04;35.30;1.00
37158;DHT22;23050;51.776;22.638;2023-07-09T11:28:16;35.00;1.00
37158;DHT22;23050;51.776;22.638;2023-07-09T11:30:45;34.70;1.00
37158;DHT22;23050;51.776;22.638;2023-07-09T11:33:20;34.40;1.00
37158;DHT22;23050;51.776;22.638;2023-07-09T11:35:52;34.40;1.00
37158;DHT22;23050;51.776;22.638;2023-07-09T11:38:19;34.40;1.00
37158;DHT22;23050;51.776;22.638;2023-07-09T11:40:54;34.40;1.00
37158;DHT22;23050;51.776;22.638;2023-07-09T11:43:35;34.40;1.00
37158;DHT22;23050;51.776;22.638;2023-07-09T11:46:20;34.60;1.00
37158;DHT22;23050;51.776;22.638;2023-07-09T11:48:47;34.50;1.00
37158;DHT22;23050;51.776;22.638;2023-07-09T11:51:17;34.40;1.00
37158;DHT22;23050;51.776;22.638;2023-07-09T11:53:49;34.20;1.00
37158;DHT22;23050;51.776;22.638;2023-07-09T11:56:19;34.00;1.00
37158;DHT22;23050;51.776;22.638;2023-07-09T11:58:51;34.00;1.00
37158;DHT22;23050;51.776;22.638;2023-07-09T12:01:28;33.80;1.00
37158;DHT22;23050;51.776;22.638;2023-07-09T12:03:55;33.70;1.00
37158;DHT22;23050;51.776;22.638;2023-07-09T12:06:29;34.00;1.00
37158;DHT22;23050;51.776;22.638;2023-07-09T12:08:56;34.10;1.00
37158;DHT22;23050;51.776;22.638;2023-07-09T12:13:47;34.00;1.00
37158;DHT22;23050;51.776;22.638;2023-07-09T12:16:29;34.20;1.00
37158;DHT22;23050;51.776;22.638;2023-07-09T12:18:55;34.10;1.00
37158;DHT22;23050;51.776;22.638;2023-07-09T12:21:21;34.10;1.00
37158;DHT22;23050;51.776;22.638;2023-07-09T12:23:47;34.00;1.00
37158;DHT22;23050;51.776;22.638;2023-07-09T12:26:13;34.20;1.00
37158;DHT22;23050;51.776;22.638;2023-07-09T12:28:39;34.30;1.00
37158;DHT22;23050;51.776;22.638;2023-07-09T12:31:04;34.00;1.00
37158;DHT22;23050;51.776;22.638;2023-07-09T12:33:30;33.80;1.00
37158;DHT22;23050;51.776;22.638;2023-07-09T12:35:56;33.40;1.00
37158;DHT22;23050;51.776;22.638;2023-07-09T12:38:23;33.00;1.00
37158;DHT22;23050;51.776;22.638;2023-07-09T12:40:50;33.10;1.00
37158;DHT22;23050;51.776;22.638;2023-07-09T12:43:19;32.80;1.00
37158;DHT22;23050;51.776;22.638;2023-07-09T12:45:47;33.00;1.00
37158;DHT22;23050;51.776;22.638;2023-07-09T12:48:13;32.80;1.00
37158;DHT22;23050;51.776;22.638;2023-07-09T12:50:39;33.00;1.00
37158;DHT22;23050;51.776;22.638;2023-07-09T12:53:17;33.30;1.00
37158;DHT22;23050;51.776;22.638;2023-07-09T12:55:44;33.50;1.00
37158;DHT22;23050;51.776;22.638;2023-07-09T12:58:11;33.50;1.00
37158;DHT22;23050;51.776;22.638;2023-07-09T13:00:38;33.50;1.00
37158;DHT22;23050;51.776;22.638;2023-07-09T13:03:12;33.50;1.00
37158;DHT22;23050;51.776;22.638;2023-07-09T13:05:38;33.60;1.00
37158;DHT22;23050;51.776;22.638;2023-07-09T13:08:04;33.30;1.00
37158;DHT22;23050;51.776;22.638;2023-07-09T13:10:30;33.40;1.00
37158;DHT22;23050;51.776;22.638;2023-07-09T13:12:57;33.70;1.00
37158;DHT22;23050;51.776;22.638;2023-07-09T13:15:26;33.50;1.00
37158;DHT22;23050;51.776;22.638;2023-07-09T13:17:59;33.60;1.00
37158;DHT22;23050;51.776;22.638;2023-07-09T13:20:25;33.80;1.00
37158;DHT22;23050;51.776;22.638;2023-07-09T13:22:51;34.20;1.00
37158;DHT22;23050;51.776;22.638;2023-07-09T13:25:17;34.00;1.00
37158;DHT22;23050;51.776;22.638;2023-07-09T13:27:42;33.80;1.00
37158;DHT22;23050;51.776;22.638;2023-07-09T13:30:09;33.70;1.00
37158;DHT22;23050;51.776;22.638;2023-07-09T13:32:34;33.60;1.00
37158;DHT22;23050;51.776;22.638;2023-07-09T13:35:00;33.50;1.00
37158;DHT22;23050;51.776;22.638;2023-07-09T13:37:25;33.70;1.00
37158;DHT22;23050;51.776;22.638;2023-07-09T13:39:51;33.80;1.00
37158;DHT22;23050;51.776;22.638;2023-07-09T13:42:17;33.80;1.00
37158;DHT22;23050;51.776;22.638;2023-07-09T13:44:43;33.50;1.00
37158;DHT22;23050;51.776;22.638;2023-07-09T13:47:16;33.40;1.00
37158;DHT22;23050;51.776;22.638;2023-07-09T13:49:42;33.80;1.00
37158;DHT22;23050;51.776;22.638;2023-07-09T13:52:08;33.90;1.00
37158;DHT22;23050;51.776;22.638;2023-07-09T13:54:38;34.00;1.00
37158;DHT22;23050;51.776;22.638;2023-07-09T13:57:04;34.20;1.00
37158;DHT22;23050;51.776;22.638;2023-07-09T13:59:30;34.60;1.00
37158;DHT22;23050;51.776;22.638;2023-07-09T14:01:56;34.60;1.00
37158;DHT22;23050;51.776;22.638;2023-07-09T14:04:23;34.90;1.00
37158;DHT22;23050;51.776;22.638;2023-07-09T14:06:49;34.80;1.00
37158;DHT22;23050;51.776;22.638;2023-07-09T14:09:15;34.50;1.00
37158;DHT22;23050;51.776;22.638;2023-07-09T14:11:42;34.20;1.00
37158;DHT22;23050;51.776;22.638;2023-07-09T14:14:13;34.20;1.00
37158;DHT22;23050;51.776;22.638;2023-07-09T14:16:41;34.10;1.00
37158;DHT22;23050;51.776;22.638;2023-07-09T14:19:11;34.10;1.00
37158;DHT22;23050;51.776;22.638;2023-07-09T14:21:37;33.70;1.00
37158;DHT22;23050;51.776;22.638;2023-07-09T14:24:07;33.40;1.00
37158;DHT22;23050;51.776;22.638;2023-07-09T14:26:39;33.80;1.00
37158;DHT22;23050;51.776;22.638;2023-07-09T14:29:05;33.50;1.00
37158;DHT22;23050;51.776;22.638;2023-07-09T14:31:31;33.60;1.00
37158;DHT22;23050;51.776;22.638;2023-07-09T14:33:59;33.70;1.00
37158;DHT22;23050;51.776;22.638;2023-07-09T14:36:36;33.40;1.00
37158;DHT22;23050;51.776;22.638;2023-07-09T14:39:02;33.50;1.00
37158;DHT22;23050;51.776;22.638;2023-07-09T14:41:27;32.90;1.00
37158;DHT22;23050;51.776;22.638;2023-07-09T14:43:54;32.30;1.00
37158;DHT22;23050;51.776;22.638;2023-07-09T14:46:22;32.00;1.00
37158;DHT22;23050;51.776;22.638;2023-07-09T14:48:47;32.20;1.00
37158;DHT22;23050;51.776;22.638;2023-07-09T14:51:16;32.30;1.00
37158;DHT22;23050;51.776;22.638;2023-07-09T14:53:41;32.80;1.00
37158;DHT22;23050;51.776;22.638;2023-07-09T14:56:07;32.90;1.00
37158;DHT22;23050;51.776;22.638;2023-07-09T14:58:34;33.00;1.00
37158;DHT22;23050;51.776;22.638;2023-07-09T15:01:00;33.30;1.00
37158;DHT22;23050;51.776;22.638;2023-07-09T15:03:25;33.20;1.00
37158;DHT22;23050;51.776;22.638;2023-07-09T15:05:52;32.90;1.00
37158;DHT22;23050;51.776;22.638;2023-07-09T15:08:18;32.40;1.00
37158;DHT22;23050;51.776;22.638;2023-07-09T15:10:45;32.40;1.00
37158;DHT22;23050;51.776;22.638;2023-07-09T15:13:30;32.20;1.00
37158;DHT22;23050;51.776;22.638;2023-07-09T15:15:59;32.40;1.00
37158;DHT22;23050;51.776;22.638;2023-07-09T15:18:24;32.50;1.00
37158;DHT22;23050;51.776;22.638;2023-07-09T15:20:51;32.50;1.00
37158;DHT22;23050;51.776;22.638;2023-07-09T15:23:17;32.60;1.00
37158;DHT22;23050;51.776;22.638;2023-07-09T15:25:42;32.50;1.00
37158;DHT22;23050;51.776;22.638;2023-07-09T15:28:09;32.10;1.00
37158;DHT22;23050;51.776;22.638;2023-07-09T15:30:35;31.70;1.00
37158;DHT22;23050;51.776;22.638;2023-07-09T15:33:02;31.70;1.00
37158;DHT22;23050;51.776;22.638;2023-07-09T15:35:30;31.40;1.00
37158;DHT22;23050;51.776;22.638;2023-07-09T15:37:56;30.70;1.00
37158;DHT22;23050;51.776;22.638;2023-07-09T15:40:25;30.20;1.00
37158;DHT22;23050;51.776;22.638;2023-07-09T15:42:57;30.00;1.00
37158;DHT22;23050;51.776;22.638;2023-07-09T15:45:23;30.00;1.00
37158;DHT22;23050;51.776;22.638;2023-07-09T15:47:49;30.30;1.00
37158;DHT22;23050;51.776;22.638;2023-07-09T15:50:16;30.40;1.00
37158;DHT22;23050;51.776;22.638;2023-07-09T15:52:42;30.60;1.00
37158;DHT22;23050;51.776;22.638;2023-07-09T15:55:28;30.50;1.00
37158;DHT22;23050;51.776;22.638;2023-07-09T15:57:54;31.00;1.00
37158;DHT22;23050;51.776;22.638;2023-07-09T16:00:21;31.20;1.00
37158;DHT22;23050;51.776;22.638;2023-07-09T16:02:48;31.20;1.00
37158;DHT22;23050;51.776;22.638;2023-07-09T16:05:18;30.80;1.00
37158;DHT22;23050;51.776;22.638;2023-07-09T16:07:44;30.40;1.00